< < Back
Terminal Aerodrome Forecast


Current Version              Previous Versions:   1  2  3  4  5  6  7  8  9  

Terminal Aerodrome Forecast

183
FTUS42 KCHS 161700
TAFCHS
TAF
KCHS 161739Z 1618/1718 07012G17KT P6SM SKC
     FM162300 06010KT P6SM SCT035
     FM170600 02012KT P6SM SCT030
     FM170900 04013G19KT P6SM SCT025 SCT050=

Latest METAR

595
SAUS80 KWBC 171500 CCB
MTRCHS
METAR KCHS 171456Z 05009KT 10SM SCT250 13/04 A3045 RMK AO2 SLP312
T01330039 51012


USA.gov is the U.S. government's official web portal to all federal, state and local government web resources and services.